Time;durP1;ratioP1;P1;durP2;ratioP2;P2;SDS_P1;SDS_P2;PMS_P1;PMS_P2;Temp;Humidity;BMP_temperature;BMP_pressure;BME280_temperature;BME280_humidity;BME280_pressure;Samples;Min_cycle;Max_cycle;Signal;HPM_P1;HPM_P2
2022/12/14 00:00:31;;;;;;;;;40.50;34.50;;;;;1.69;56.60;99472.34;5080465;28;45857;-53
2022/12/14 00:02:57;;;;;;;;;35.25;32.00;;;;;1.70;56.75;99474.03;5080334;28;45464;-52
2022/12/14 00:05:22;;;;;;;;;41.75;33.75;;;;;1.72;56.59;99480.09;5081647;27;45454;-51
2022/12/14 00:07:48;;;;;;;;;32.75;30.50;;;;;1.67;56.24;99478.97;5081821;27;45290;-50
2022/12/14 00:10:13;;;;;;;;;46.50;36.25;;;;;1.66;56.20;99480.84;5081138;27;46557;-49
2022/12/14 00:12:39;;;;;;;;;40.25;27.00;;;;;1.63;56.65;99470.38;5081401;28;45331;-50
2022/12/14 00:15:11;;;;;;;;;30.25;29.50;;;;;1.74;56.79;99475.34;5081655;27;45889;-54
2022/12/14 00:17:36;;;;;;;;;42.75;34.50;;;;;1.73;55.89;99472.81;5081656;27;45381;-55
2022/12/14 00:20:02;;;;;;;;;37.50;30.50;;;;;1.64;56.42;99476.66;5079825;28;46050;-52
2022/12/14 00:22:28;;;;;;;;;38.50;32.00;;;;;1.70;56.30;99471.31;5081131;27;45343;-50
2022/12/14 00:24:53;;;;;;;;;41.50;34.75;;;;;1.71;56.22;99478.41;5081117;27;45268;-53
2022/12/14 00:27:18;;;;;;;;;35.25;29.50;;;;;1.65;56.66;99468.31;5080182;28;45532;-52
2022/12/14 00:29:44;;;;;;;;;41.75;35.00;;;;;1.69;56.76;99455.25;5080683;28;46608;-54
2022/12/14 00:32:10;;;;;;;;;37.50;31.25;;;;;1.67;56.77;99460.03;5081142;28;45366;-55
2022/12/14 00:34:35;;;;;;;;;39.50;30.00;;;;;1.71;56.77;99464.06;5081214;27;45719;-53
2022/12/14 00:37:00;;;;;;;;;41.25;33.25;;;;;1.75;56.49;99460.78;5081420;27;45316;-55
2022/12/14 00:39:26;;;;;;;;;40.50;37.25;;;;;1.69;56.61;99439.88;5079631;28;45622;-55
2022/12/14 00:41:51;;;;;;;;;30.50;23.50;;;;;1.61;56.40;99421.88;5080786;27;45711;-50
2022/12/14 00:44:17;;;;;;;;;37.00;34.50;;;;;1.53;56.58;99402.19;5081134;28;45351;-52
2022/12/14 00:46:42;;;;;;;;;35.25;30.75;;;;;1.81;56.68;99442.97;5079861;28;45755;-53
2022/12/14 00:49:09;;;;;;;;;40.50;35.00;;;;;1.77;56.87;99430.84;5080982;28;46349;-54
2022/12/14 00:51:34;;;;;;;;;43.25;33.00;;;;;1.87;56.39;99446.81;5079429;28;45423;-53
2022/12/14 00:54:00;;;;;;;;;38.50;35.00;;;;;1.86;57.04;99439.69;5080906;28;45428;-50
2022/12/14 00:56:25;;;;;;;;;31.75;26.75;;;;;1.88;56.77;99434.94;5081250;28;45485;-52
2022/12/14 00:58:51;;;;;;;;;46.50;39.00;;;;;1.88;56.84;99434.94;5080481;28;46080;-51
2022/12/14 01:01:17;;;;;;;;;36.50;34.50;;;;;1.91;56.95;99429.16;5080969;27;45386;-53
2022/12/14 01:03:42;;;;;;;;;25.50;22.75;;;;;1.94;56.94;99436.91;5079367;28;45359;-54
2022/12/14 01:06:19;;;;;;;;;35.50;28.75;;;;;1.91;56.66;99431.03;5081091;28;45570;-51
2022/12/14 01:08:44;;;;;;;;;32.50;31.75;;;;;1.65;56.33;99394.47;5044223;27;46455;-53
2022/12/14 01:11:10;;;;;;;;;41.25;36.50;;;;;1.73;56.85;99414.16;5075828;28;45800;-52
2022/12/14 01:13:36;;;;;;;;;36.75;34.75;;;;;1.93;57.37;99443.34;5076034;28;45388;-53
2022/12/14 01:16:06;;;;;;;;;35.50;30.25;;;;;1.88;56.46;99456.59;5076113;28;45380;-50
2022/12/14 01:18:33;;;;;;;;;39.25;26.00;;;;;1.93;57.09;99462.28;5075829;28;46862;-55
2022/12/14 01:21:14;;;;;;;;;34.50;31.00;;;;;1.93;56.95;99473.13;5077454;27;45877;-52
2022/12/14 01:23:39;;;;;;;;;37.00;30.00;;;;;1.92;56.95;99468.72;5075720;28;45466;-53
2022/12/14 01:26:05;;;;;;;;;33.75;31.50;;;;;1.91;57.10;99466.22;5077620;27;45553;-50
2022/12/14 01:28:30;;;;;;;;;36.25;34.00;;;;;1.75;57.33;99444.56;5077001;27;46302;-50
2022/12/14 01:30:56;;;;;;;;;37.50;34.50;;;;;1.98;57.38;99461.72;5077141;28;45318;-49
2022/12/14 01:33:21;;;;;;;;;38.25;35.75;;;;;1.99;56.96;99464.25;5077161;27;45443;-49
2022/12/14 01:35:47;;;;;;;;;44.50;38.50;;;;;1.91;57.11;99453.50;5092944;27;45367;-49
2022/12/14 01:38:12;;;;;;;;;39.00;32.50;;;;;1.96;57.42;99463.75;5076872;27;45491;-53
2022/12/14 01:40:38;;;;;;;;;32.75;22.00;;;;;2.03;57.19;99470.13;5076984;27;45217;-50
2022/12/14 01:43:11;;;;;;;;;43.50;33.75;;;;;2.01;57.43;99467.59;5076506;27;45355;-51
2022/12/14 01:45:37;;;;;;;;;43.00;32.75;;;;;2.07;57.34;99476.00;5075810;28;45305;-54
2022/12/14 01:48:02;;;;;;;;;34.00;31.50;;;;;2.08;57.10;99469.56;5076280;28;46427;-54
2022/12/14 01:50:33;;;;;;;;;39.75;35.25;;;;;2.06;57.20;99458.06;5076431;28;45360;-52
2022/12/14 01:53:01;;;;;;;;;47.50;34.25;;;;;2.03;57.60;99465.53;5059351;28;45401;-54
2022/12/14 01:55:30;;;;;;;;;37.00;33.25;;;;;2.01;58.44;99478.44;5076728;28;45837;-53
2022/12/14 01:58:13;;;;;;;;;42.50;32.25;;;;;1.93;59.31;99459.59;5075466;28;45738;-50
2022/12/14 02:00:39;;;;;;;;;46.50;35.75;;;;;1.96;59.94;99463.75;5075386;28;45837;-53
2022/12/14 02:03:17;;;;;;;;;47.50;40.25;;;;;1.68;60.75;99426.53;5076605;28;45515;-49
2022/12/14 02:05:57;;;;;;;;;46.25;40.75;;;;;1.87;61.92;99471.16;5076600;28;45421;-52
2022/12/14 02:08:22;;;;;;;;;43.50;39.50;;;;;1.69;61.62;99455.25;5075248;28;45506;-53
2022/12/14 02:10:48;;;;;;;;;52.25;41.50;;;;;1.81;61.85;99459.19;5074964;28;45381;-53
2022/12/14 02:13:25;;;;;;;;;45.50;37.00;;;;;1.88;62.27;99467.41;5076549;28;45348;-53
2022/12/14 02:15:51;;;;;;;;;43.50;37.75;;;;;1.81;62.38;99466.50;5059788;28;45559;-51
2022/12/14 02:18:21;;;;;;;;;40.50;38.50;;;;;1.75;63.07;99457.22;5074811;28;47640;-52
2022/12/14 02:21:04;;;;;;;;;45.00;36.25;;;;;1.50;62.56;99419.66;5075903;27;45487;-55
2022/12/14 02:23:38;;;;;;;;;41.75;33.25;;;;;1.29;62.90;99386.03;5076062;28;45855;-51
2022/12/14 02:26:06;;;;;;;;;45.00;41.00;;;;;1.57;63.93;99441.38;5058744;28;45404;-55
2022/12/14 02:28:59;;;;;;;;;45.25;37.75;;;;;1.45;63.61;99431.00;5075983;28;45461;-50
2022/12/14 02:31:49;;;;;;;;;44.75;37.75;;;;;1.55;63.77;99427.19;5074671;28;45411;-54
2022/12/14 02:34:53;;;;;;;;;46.00;35.00;;;;;1.59;63.67;99420.38;5076282;27;45423;-51
2022/12/14 02:37:59;;;;;;;;;45.25;38.25;;;;;1.54;64.47;99393.06;5076585;28;45293;-51
2022/12/14 02:40:34;;;;;;;;;39.75;34.50;;;;;1.61;65.11;99399.41;5074323;28;46122;-52
2022/12/14 02:43:06;;;;;;;;;54.50;37.00;;;;;1.58;65.29;99380.84;5075877;28;45259;-52
2022/12/14 02:45:55;;;;;;;;;42.50;37.50;;;;;1.58;65.97;99394.34;5059389;28;45451;-52
2022/12/14 02:48:22;;;;;;;;;40.75;36.50;;;;;1.55;65.85;99400.97;5054824;28;45699;-54
2022/12/14 02:51:11;;;;;;;;;45.50;35.75;;;;;1.53;66.50;99399.47;5054139;28;45380;-51
2022/12/14 02:54:01;;;;;;;;;42.50;36.00;;;;;1.54;67.26;99384.97;5054317;28;45400;-54
2022/12/14 02:56:31;;;;;;;;;43.75;36.00;;;;;1.44;67.44;99367.13;5054672;28;45435;-50
2022/12/14 02:58:57;;;;;;;;;48.50;36.75;;;;;1.22;67.81;99328.31;5007341;28;45589;-52
2022/12/14 03:01:24;;;;;;;;;37.00;33.25;;;;;1.35;68.01;99373.66;5067958;28;46030;-52
2022/12/14 03:03:49;;;;;;;;;38.00;32.50;;;;;1.26;68.69;99364.78;5091551;27;45342;-54
2022/12/14 03:06:29;;;;;;;;;48.75;39.50;;;;;1.29;68.56;99382.50;5074381;28;45360;-54
2022/12/14 03:09:03;;;;;;;;;37.00;33.75;;;;;1.20;68.53;99382.59;5074824;28;45434;-50
2022/12/14 03:11:40;;;;;;;;;46.00;38.25;;;;;1.25;68.79;99371.22;5058315;28;46624;-53
2022/12/14 03:14:26;;;;;;;;;40.50;35.25;;;;;1.27;67.73;99373.75;5075362;27;45448;-54
2022/12/14 03:16:52;;;;;;;;;40.50;33.25;;;;;1.23;68.17;99367.88;5075746;28;45359;-53
2022/12/14 03:19:37;;;;;;;;;50.00;34.00;;;;;1.31;67.92;99369.63;5075975;27;45387;-53
2022/12/14 03:22:14;;;;;;;;;46.75;36.50;;;;;1.38;67.38;99391.38;5091101;27;46818;-50
2022/12/14 03:24:44;;;;;;;;;41.75;36.00;;;;;1.21;67.40;99373.47;5074206;28;45305;-52
2022/12/14 03:27:22;;;;;;;;;44.25;38.50;;;;;1.27;67.71;99381.84;5074411;28;45399;-51
2022/12/14 03:29:51;;;;;;;;;48.00;39.25;;;;;1.34;68.00;99380.91;5074618;28;45328;-51
2022/12/14 03:32:19;;;;;;;;;45.75;39.00;;;;;1.30;67.55;99373.38;5073579;27;46210;-51
2022/12/14 03:34:51;;;;;;;;;49.25;38.75;;;;;1.10;68.50;99330.66;5090706;27;45412;-50
2022/12/14 03:37:43;;;;;;;;;49.25;38.25;;;;;1.29;67.70;99369.00;5040739;28;45380;-52
2022/12/14 03:40:10;;;;;;;;;46.75;35.50;;;;;1.30;67.37;99367.97;5056363;27;45579;-53
2022/12/14 03:42:51;;;;;;;;;46.50;41.00;;;;;1.37;67.75;99368.91;5073586;28;45736;-54
2022/12/14 03:45:17;;;;;;;;;43.75;38.50;;;;;1.38;67.21;99365.16;5074771;28;45747;-53
2022/12/14 03:48:08;;;;;;;;;43.50;40.50;;;;;1.19;67.52;99313.31;5073811;28;45673;-49
2022/12/14 03:50:45;;;;;;;;;44.75;33.25;;;;;1.48;67.41;99354.06;5073543;28;45512;-52
2022/12/14 03:53:14;;;;;;;;;41.00;36.25;;;;;1.52;67.62;99338.31;5056653;28;45804;-54
2022/12/14 03:55:48;;;;;;;;;36.00;31.75;;;;;1.30;67.50;99293.13;5073656;28;45313;-52
2022/12/14 03:58:45;;;;;;;;;46.50;38.75;;;;;1.54;67.50;99328.16;5075213;27;45299;-52
2022/12/14 04:01:20;;;;;;;;;37.00;31.25;;;;;1.56;67.71;99335.06;5075192;28;45358;-54
2022/12/14 04:04:02;;;;;;;;;43.25;34.50;;;;;1.59;67.63;99339.22;5050251;28;46278;-51
2022/12/14 04:06:31;;;;;;;;;48.75;38.75;;;;;1.60;67.30;99336.34;5090286;27;45489;-53
2022/12/14 04:09:06;;;;;;;;;47.00;36.00;;;;;1.62;66.75;99339.69;5074733;27;45342;-49
2022/12/14 04:20:12;;;;;;;;;43.00;38.25;;;;;1.44;67.79;99315.75;5073645;28;45376;-51
2022/12/14 04:22:41;;;;;;;;;43.33;36.67;;;;;1.46;67.80;99319.13;5074189;27;45391;-50
2022/12/14 04:28:02;;;;;;;;;36.00;33.50;;;;;1.45;67.74;99316.59;5074487;28;45444;-53
2022/12/14 04:30:28;;;;;;;;;44.50;36.50;;;;;1.46;67.90;99313.72;5073322;28;45391;-53
2022/12/14 04:33:45;;;;;;;;;42.25;39.00;;;;;1.52;68.26;99316.66;5090430;27;45561;-52
2022/12/14 04:35:46;;;;;;;;;47.25;41.50;;;;;1.54;67.80;99315.47;5072537;28;46418;-50
2022/12/14 04:38:35;;;;;;;;;34.50;31.50;;;;;1.51;67.83;99315.84;5074566;27;45456;-54
2022/12/14 04:41:04;;;;;;;;;41.00;35.50;;;;;1.53;67.67;99319.19;5081377;27;45320;-51
2022/12/14 04:43:30;;;;;;;;;34.50;31.00;;;;;1.55;67.33;99332.53;5091802;27;45484;-52
2022/12/14 04:46:00;;;;;;;;;47.00;36.00;;;;;1.41;68.14;99312.56;5076518;27;46524;-52
2022/12/14 04:48:33;;;;;;;;;39.75;34.25;;;;;1.47;67.87;99328.91;5076198;28;45466;-51
2022/12/14 04:51:10;;;;;;;;;40.25;34.75;;;;;1.45;67.63;99332.81;5076705;28;45351;-51
2022/12/14 04:53:35;;;;;;;;;46.75;41.00;;;;;1.55;67.48;99343.34;5077720;28;45378;-53
2022/12/14 04:56:24;;;;;;;;;42.25;38.25;;;;;1.48;67.90;99338.69;5059293;28;46140;-54
2022/12/14 04:58:49;;;;;;;;;50.00;39.00;;;;;1.50;67.62;99338.50;5059445;28;45397;-54
2022/12/14 05:01:14;;;;;;;;;44.00;33.25;;;;;1.23;68.75;99313.81;5077690;28;45817;-55
2022/12/14 05:03:48;;;;;;;;;40.25;36.25;;;;;1.37;68.59;99346.44;5077732;27;45616;-52
2022/12/14 05:06:31;;;;;;;;;36.25;34.00;;;;;1.41;68.11;99343.16;5060737;27;46579;-54
2022/12/14 05:09:08;;;;;;;;;47.50;41.50;;;;;1.26;68.09;99316.13;5062589;28;45405;-54
2022/12/14 05:12:08;;;;;;;;;49.50;39.00;;;;;1.43;68.68;99351.94;5059842;28;45461;-50
2022/12/14 05:14:41;;;;;;;;;49.75;35.00;;;;;0.87;68.24;99249.66;5057429;28;45429;-50
2022/12/14 05:17:06;;;;;;;;;48.50;34.25;;;;;1.47;67.81;99341.56;5075713;28;46438;-50
2022/12/14 05:19:32;;;;;;;;;54.75;39.25;;;;;1.47;67.98;99328.06;5075943;28;45355;-49
2022/12/14 05:22:01;;;;;;;;;50.75;38.00;;;;;1.48;67.83;99322.47;5077411;28;45451;-50
2022/12/14 05:24:26;;;;;;;;;39.75;39.75;;;;;1.40;67.61;99311.75;5059424;28;45397;-50
2022/12/14 05:26:52;;;;;;;;;47.00;40.25;;;;;1.25;67.58;99302.78;5076856;27;46387;-52
2022/12/14 05:29:17;;;;;;;;;41.00;37.75;;;;;1.37;68.06;99330.22;5077302;28;45440;-51
2022/12/14 05:31:43;;;;;;;;;53.50;42.00;;;;;1.35;68.17;99328.50;5076905;28;45499;-53
2022/12/14 05:34:09;;;;;;;;;39.00;34.00;;;;;1.38;68.39;99329.19;5059340;28;45446;-50
2022/12/14 05:36:34;;;;;;;;;41.50;37.50;;;;;1.44;67.98;99323.84;5076531;27;46636;-51
2022/12/14 05:39:00;;;;;;;;;40.25;34.50;;;;;1.50;67.35;99322.28;5077024;28;45213;-53
2022/12/14 05:41:25;;;;;;;;;39.50;34.00;;;;;1.52;67.59;99320.22;5075695;28;45344;-50
2022/12/14 05:43:51;;;;;;;;;38.25;34.75;;;;;1.52;67.09;99316.66;5077615;27;45714;-53
2022/12/14 05:46:17;;;;;;;;;33.50;31.75;;;;;1.52;67.34;99332.91;5075235;28;47253;-53
2022/12/14 05:48:42;;;;;;;;;43.50;34.75;;;;;1.46;67.16;99337.19;5076482;27;45316;-49
2022/12/14 05:51:10;;;;;;;;;37.25;34.00;;;;;1.46;67.47;99348.88;5075547;28;45491;-53
2022/12/14 05:53:35;;;;;;;;;45.75;37.50;;;;;1.48;67.32;99363.03;5074994;28;45407;-50
2022/12/14 05:56:01;;;;;;;;;40.50;34.50;;;;;1.42;67.92;99344.84;5075363;28;45572;-52
2022/12/14 05:58:27;;;;;;;;;37.75;33.25;;;;;1.49;67.67;99364.72;5075758;28;45410;-50
2022/12/14 06:00:53;;;;;;;;;39.75;31.25;;;;;1.30;67.74;99324.69;5076332;28;45301;-52
2022/12/14 06:03:19;;;;;;;;;42.75;37.00;;;;;1.46;68.15;99362.38;5076929;28;45470;-49
2022/12/14 06:05:44;;;;;;;;;35.00;30.75;;;;;1.52;68.42;99365.34;5075171;28;46233;-51
2022/12/14 06:08:10;;;;;;;;;37.75;30.25;;;;;1.43;68.10;99353.78;5075500;28;45365;-49
2022/12/14 06:10:35;;;;;;;;;48.00;34.25;;;;;1.51;67.93;99360.97;5075397;28;45321;-54
2022/12/14 06:13:01;;;;;;;;;42.00;35.75;;;;;1.60;68.26;99367.97;5076690;27;45553;-53
2022/12/14 06:15:27;;;;;;;;;44.25;33.50;;;;;1.53;68.53;99364.31;5075260;28;45739;-54
2022/12/14 06:17:52;;;;;;;;;35.50;31.00;;;;;1.28;68.20;99337.56;5074851;28;45349;-51
2022/12/14 06:20:18;;;;;;;;;41.50;36.25;;;;;1.46;68.91;99380.47;5075119;28;45360;-54
2022/12/14 06:22:43;;;;;;;;;38.50;36.25;;;;;1.27;69.02;99333.19;5075391;28;46006;-50
2022/12/14 06:25:09;;;;;;;;;49.75;34.75;;;;;1.56;68.40;99370.22;5076421;28;45975;-52
2022/12/14 06:27:34;;;;;;;;;39.50;34.25;;;;;1.61;68.45;99364.25;5076111;27;45356;-52
2022/12/14 06:30:00;;;;;;;;;43.75;39.50;;;;;1.37;69.35;99322.94;5074915;28;45495;-51
2022/12/14 06:32:25;;;;;;;;;37.50;37.25;;;;;1.51;69.18;99374.50;5074816;28;45546;-52
2022/12/14 06:34:51;;;;;;;;;40.75;36.00;;;;;1.57;69.14;99368.34;5075960;28;46005;-52
2022/12/14 06:37:16;;;;;;;;;38.75;31.75;;;;;1.57;69.05;99368.34;5075953;28;45279;-53
2022/12/14 06:39:42;;;;;;;;;47.00;38.00;;;;;1.56;69.38;99367.53;5076296;28;45423;-52
2022/12/14 06:42:07;;;;;;;;;38.25;31.00;;;;;1.55;69.09;99344.19;5074818;28;45578;-54
2022/12/14 06:44:33;;;;;;;;;38.25;34.25;;;;;1.67;69.49;99357.22;5074791;28;46524;-53
2022/12/14 06:46:58;;;;;;;;;45.50;41.00;;;;;1.67;68.81;99360.78;5056555;28;45252;-50
2022/12/14 06:49:24;;;;;;;;;40.75;38.75;;;;;1.62;69.50;99369.44;5055736;28;45345;-49
2022/12/14 06:51:49;;;;;;;;;47.00;38.75;;;;;1.26;69.71;99324.25;5038081;28;45512;-49
2022/12/14 06:54:15;;;;;;;;;37.25;32.75;;;;;1.58;69.20;99364.59;5055357;28;45304;-52
2022/12/14 06:56:41;;;;;;;;;40.50;39.00;;;;;1.62;69.58;99371.31;5036510;28;45341;-54
2022/12/14 06:59:07;;;;;;;;;46.25;39.75;;;;;1.65;68.92;99370.94;5054694;28;45405;-56
2022/12/14 07:01:33;;;;;;;;;47.25;36.25;;;;;1.31;69.01;99313.72;5055530;28;45317;-54
2022/12/14 07:03:59;;;;;;;;;48.25;36.00;;;;;1.69;69.01;99377.66;5056008;28;46368;-55
2022/12/14 07:06:26;;;;;;;;;34.75;33.25;;;;;1.71;69.11;99381.00;5052853;28;45496;-51
2022/12/14 07:08:52;;;;;;;;;38.25;34.75;;;;;1.75;69.08;99387.75;5054515;28;45589;-53
2022/12/14 07:11:18;;;;;;;;;44.50;35.75;;;;;1.51;68.49;99347.44;5055869;28;45301;-53
2022/12/14 07:13:43;;;;;;;;;47.25;42.75;;;;;1.68;69.11;99394.06;5055467;28;46226;-52
2022/12/14 07:16:16;;;;;;;;;43.25;35.25;;;;;1.65;69.46;99405.28;5055595;28;45419;-51
2022/12/14 07:18:41;;;;;;;;;38.00;35.50;;;;;1.54;69.93;99407.41;5053914;28;45366;-52
2022/12/14 07:21:08;;;;;;;;;52.50;36.25;;;;;1.26;69.93;99356.69;5055941;28;45277;-53
2022/12/14 07:23:36;;;;;;;;;49.75;40.75;;;;;1.56;70.64;99404.53;5055002;28;46817;-52
2022/12/14 07:26:02;;;;;;;;;33.25;31.00;;;;;1.61;70.10;99418.34;5055124;28;45405;-49
2022/12/14 07:28:28;;;;;;;;;52.00;41.25;;;;;1.59;70.31;99417.66;5053908;28;45445;-54
2022/12/14 07:30:55;;;;;;;;;45.50;37.25;;;;;1.61;69.92;99429.97;5055514;28;45309;-54
2022/12/14 07:33:20;;;;;;;;;45.75;40.75;;;;;1.61;69.71;99437.28;5053491;28;46569;-53
2022/12/14 07:35:49;;;;;;;;;50.75;41.50;;;;;1.62;69.80;99437.06;5055236;28;45371;-50
2022/12/14 07:38:15;;;;;;;;;43.25;38.00;;;;;1.58;69.54;99434.94;5053597;28;45392;-50
2022/12/14 07:40:41;;;;;;;;;38.75;36.25;;;;;1.59;70.07;99432.03;5055287;28;45578;-53
2022/12/14 07:43:07;;;;;;;;;32.25;25.25;;;;;1.67;70.05;99439.25;5054626;28;45408;-50
2022/12/14 07:45:32;;;;;;;;;47.50;41.75;;;;;1.65;70.30;99453.97;5061350;28;45422;-54
2022/12/14 07:47:58;;;;;;;;;44.50;37.25;;;;;1.61;70.00;99448.09;5043303;28;45347;-53
2022/12/14 07:50:23;;;;;;;;;44.50;35.75;;;;;1.66;70.25;99450.25;5050017;28;45427;-51
2022/12/14 07:52:49;;;;;;;;;51.00;41.50;;;;;1.67;70.59;99451.91;5054218;28;46421;-53
2022/12/14 07:55:14;;;;;;;;;39.25;34.25;;;;;1.63;70.75;99448.75;5054682;28;45869;-52
2022/12/14 07:57:39;;;;;;;;;49.25;36.75;;;;;1.58;70.79;99445.75;5054476;28;45697;-51
2022/12/14 08:00:05;;;;;;;;;45.50;39.25;;;;;1.58;70.90;99453.84;5054755;28;45462;-54
2022/12/14 08:02:31;;;;;;;;;52.25;37.75;;;;;1.46;70.16;99440.81;5054109;28;46625;-55
2022/12/14 08:04:56;;;;;;;;;47.00;41.25;;;;;1.46;70.94;99462.44;5054524;28;45404;-50
2022/12/14 08:07:22;;;;;;;;;50.50;42.75;;;;;1.42;70.68;99453.00;5054605;28;45462;-49
2022/12/14 08:09:47;;;;;;;;;47.00;40.25;;;;;1.45;70.05;99455.34;5054976;28;45664;-51
2022/12/14 08:12:13;;;;;;;;;42.00;36.25;;;;;1.44;70.27;99453.66;5054099;28;45394;-53
2022/12/14 08:14:38;;;;;;;;;46.25;37.75;;;;;1.56;70.49;99458.63;5054085;28;45426;-54
2022/12/14 08:17:04;;;;;;;;;50.75;42.50;;;;;1.59;69.72;99469.91;5055461;28;45338;-51
2022/12/14 08:19:29;;;;;;;;;44.50;37.50;;;;;1.52;69.81;99452.75;5058354;28;45750;-56
2022/12/14 08:21:55;;;;;;;;;53.75;39.75;;;;;1.64;69.61;99466.66;5056534;28;46434;-56
2022/12/14 08:24:20;;;;;;;;;42.25;34.25;;;;;1.68;69.71;99467.97;5056634;28;45294;-54
2022/12/14 08:26:46;;;;;;;;;41.25;37.25;;;;;1.65;69.38;99467.50;5056527;28;45417;-50
2022/12/14 08:29:13;;;;;;;;;59.75;44.00;;;;;1.61;69.79;99461.63;5058191;28;45332;-49
2022/12/14 08:31:39;;;;;;;;;45.75;40.75;;;;;1.59;69.60;99463.66;5056242;28;46360;-49
2022/12/14 08:34:04;;;;;;;;;46.25;38.50;;;;;1.58;69.63;99462.81;5057456;28;45438;-48
2022/12/14 08:36:32;;;;;;;;;44.75;37.50;;;;;1.55;68.81;99452.34;5057758;28;45484;-50
2022/12/14 08:39:02;;;;;;;;;52.00;39.00;;;;;1.66;68.76;99470.03;5034870;27;45686;-51
2022/12/14 08:41:27;;;;;;;;;48.25;39.50;;;;;1.70;68.65;99476.72;5035786;28;46750;-53
2022/12/14 08:43:54;;;;;;;;;55.00;43.50;;;;;1.46;68.32;99442.66;5037059;28;45283;-53
2022/12/14 08:46:20;;;;;;;;;44.50;39.75;;;;;1.62;68.50;99463.28;5045945;28;45474;-50
2022/12/14 08:48:46;;;;;;;;;69.33;52.33;;;;;1.73;68.61;99465.56;5055797;28;45337;-53
2022/12/14 08:51:11;;;;;;;;;51.50;42.00;;;;;1.86;68.37;99474.88;5055590;28;47809;-49
2022/12/14 08:53:37;;;;;;;;;40.50;35.50;;;;;1.58;68.13;99419.56;5046558;28;45440;-49
2022/12/14 08:56:05;;;;;;;;;49.50;41.00;;;;;1.69;67.91;99434.47;5050389;28;45791;-50
2022/12/14 08:58:31;;;;;;;;;45.75;38.25;;;;;2.02;67.70;99485.53;5037433;28;45367;-52
2022/12/14 09:01:04;;;;;;;;;44.75;37.25;;;;;2.02;67.67;99473.84;5036991;28;46300;-51
2022/12/14 09:03:30;;;;;;;;;41.25;36.25;;;;;2.07;67.41;99494.97;5035615;28;45337;-50
2022/12/14 09:05:55;;;;;;;;;45.75;36.50;;;;;1.83;66.90;99449.03;5036885;28;45463;-51
2022/12/14 09:08:21;;;;;;;;;47.50;37.50;;;;;2.14;66.57;99493.19;5027677;28;46888;-54
2022/12/14 09:10:50;;;;;;;;;42.75;38.50;;;;;2.15;67.15;99492.97;5047627;28;45410;-51
2022/12/14 09:13:16;;;;;;;;;52.75;41.75;;;;;2.10;66.78;99481.03;5038316;28;45453;-55
2022/12/14 09:15:42;;;;;;;;;50.75;41.00;;;;;2.16;66.57;99502.81;5037128;28;45418;-48
2022/12/14 09:18:08;;;;;;;;;42.00;35.25;;;;;2.21;66.50;99506.78;5071406;28;45545;-48
2022/12/14 09:20:33;;;;;;;;;43.75;39.75;;;;;2.24;66.32;99509.16;5053843;28;46260;-50
2022/12/14 09:22:59;;;;;;;;;57.50;41.00;;;;;1.98;65.71;99462.56;5069504;28;45923;-49
2022/12/14 09:25:24;;;;;;;;;45.50;39.75;;;;;2.29;65.37;99512.94;5055387;28;45652;-50
2022/12/14 09:27:50;;;;;;;;;43.75;37.75;;;;;2.33;65.57;99531.56;5056020;28;45342;-52
2022/12/14 09:30:16;;;;;;;;;47.25;41.50;;;;;2.22;65.09;99522.00;5054274;28;45660;-54
2022/12/14 09:32:43;;;;;;;;;39.75;34.50;;;;;2.21;65.25;99529.31;5051177;28;45255;-54
2022/12/14 09:35:09;;;;;;;;;50.00;38.00;;;;;2.20;65.09;99532.19;5034993;28;45514;-55
2022/12/14 09:37:34;;;;;;;;;47.25;38.50;;;;;2.27;65.50;99538.53;5035377;28;45388;-50
2022/12/14 09:40:00;;;;;;;;;37.75;27.25;;;;;2.30;65.19;99543.59;5039009;28;46645;-50
2022/12/14 09:42:36;;;;;;;;;45.50;37.50;;;;;1.88;65.05;99467.41;5054807;28;45459;-50
2022/12/14 09:45:16;;;;;;;;;46.50;39.50;;;;;2.35;64.16;99541.16;5055673;28;45404;-54
2022/12/14 09:48:06;;;;;;;;;52.25;43.25;;;;;2.35;64.71;99532.19;5036095;28;45557;-56
2022/12/14 09:50:32;;;;;;;;;51.00;41.25;;;;;2.47;64.50;99541.53;5041469;28;45448;-54
2022/12/14 09:53:02;;;;;;;;;52.25;42.50;;;;;2.48;64.84;99537.78;5054639;28;45370;-54
2022/12/14 09:55:32;;;;;;;;;49.75;41.50;;;;;2.54;64.25;99539.75;5054069;28;45464;-53
2022/12/14 09:58:20;;;;;;;;;40.25;37.25;;;;;2.38;63.70;99505.56;5054441;28;45422;-53
2022/12/14 10:01:07;;;;;;;;;52.25;41.00;;;;;2.61;63.37;99547.13;5047317;28;45401;-50
2022/12/14 10:03:51;;;;;;;;;43.00;40.25;;;;;2.64;62.84;99534.03;5053519;28;45343;-52
2022/12/14 10:06:41;;;;;;;;;44.25;37.50;;;;;2.71;62.36;99531.38;5054275;28;45341;-54
2022/12/14 10:09:33;;;;;;;;;51.50;40.50;;;;;2.78;62.63;99535.00;5029268;28;45714;-53
2022/12/14 10:12:48;;;;;;;;;51.50;41.50;;;;;2.88;62.18;99533.88;5033612;28;45780;-54
2022/12/14 10:15:17;;;;;;;;;44.00;40.00;;;;;2.68;61.65;99489.25;5036044;28;45607;-49
2022/12/14 10:18:02;;;;;;;;;49.50;40.00;;;;;3.13;61.65;99536.25;5035319;28;45454;-52
2022/12/14 10:20:30;;;;;;;;;49.00;42.50;;;;;3.19;60.83;99552.56;5046442;28;45477;-48
2022/12/14 10:22:56;;;;;;;;;53.25;43.25;;;;;3.28;61.46;99545.16;5054453;28;45846;-53
2022/12/14 10:25:24;;;;;;;;;41.50;39.00;;;;;3.35;60.93;99543.34;5039706;28;45525;-53
2022/12/14 10:27:54;;;;;;;;;50.75;43.25;;;;;3.28;60.90;99506.31;5022186;28;45477;-52
2022/12/14 10:30:23;;;;;;;;;46.50;40.50;;;;;3.53;60.47;99537.44;5034809;28;45341;-52
2022/12/14 10:32:55;;;;;;;;;58.00;44.00;;;;;3.34;60.01;99500.13;5050959;28;47369;-51
2022/12/14 10:35:30;;;;;;;;;45.75;41.00;;;;;3.61;59.84;99544.63;5033122;28;45685;-51
2022/12/14 10:38:08;;;;;;;;;49.00;39.25;;;;;3.67;59.69;99532.13;5051071;28;45420;-55
2022/12/14 10:40:33;;;;;;;;;42.75;40.25;;;;;3.66;59.67;99516.88;5034773;28;45383;-51
2022/12/14 10:43:11;;;;;;;;;40.00;34.75;;;;;3.78;58.80;99539.75;5000690;28;48466;-55
2022/12/14 10:46:04;;;;;;;;;63.25;49.00;;;;;3.77;59.19;99535.34;5016384;27;45426;-55
2022/12/14 10:48:52;;;;;;;;;52.75;45.00;;;;;3.71;59.24;99538.84;5044269;28;45500;-53
2022/12/14 10:51:19;;;;;;;;;53.25;44.00;;;;;3.65;59.38;99536.91;5046923;28;45464;-58
2022/12/14 10:53:55;;;;;;;;;50.50;40.50;;;;;3.57;59.03;99543.31;5044453;28;48128;-59
2022/12/14 10:56:29;;;;;;;;;58.00;47.00;;;;;3.44;58.01;99525.06;5046657;28;45542;-57
2022/12/14 10:59:24;;;;;;;;;46.75;37.75;;;;;3.37;59.01;99545.88;5049128;28;45533;-60
2022/12/14 11:02:04;;;;;;;;;52.00;41.00;;;;;3.27;58.82;99546.19;5047643;28;45461;-57
2022/12/14 11:04:55;;;;;;;;;47.25;41.75;;;;;3.20;58.41;99540.69;5027414;28;45858;-54
2022/12/14 11:07:36;;;;;;;;;48.75;41.25;;;;;3.35;58.53;99558.75;5027416;28;45885;-53
2022/12/14 11:10:26;;;;;;;;;49.50;44.75;;;;;3.42;58.89;99561.56;5014537;27;46125;-57
2022/12/14 11:13:02;;;;;;;;;59.75;46.75;;;;;3.41;58.66;99568.84;5017926;28;45572;-55
2022/12/14 11:15:39;;;;;;;;;55.25;45.25;;;;;3.36;58.42;99555.88;5028823;28;46324;-59
2022/12/14 11:18:11;;;;;;;;;58.00;44.25;;;;;3.11;58.04;99515.56;5037346;28;45442;-58
2022/12/14 11:20:37;;;;;;;;;57.75;42.00;;;;;3.25;58.01;99549.09;5049323;28;45856;-56
2022/12/14 11:23:14;;;;;;;;;46.00;38.75;;;;;3.27;58.36;99543.47;5047951;28;45446;-60
2022/12/14 11:25:41;;;;;;;;;58.25;44.25;;;;;3.16;57.56;99520.44;5048573;28;45515;-56
2022/12/14 11:28:41;;;;;;;;;48.00;41.50;;;;;3.44;57.87;99557.63;5047057;28;45483;-55
2022/12/14 11:31:10;;;;;;;;;57.25;43.50;;;;;3.78;57.23;99528.03;5042739;28;45432;-53
2022/12/14 11:33:45;;;;;;;;;44.25;40.25;;;;;3.38;56.13;99433.59;5048029;28;45598;-52
2022/12/14 11:36:41;;;;;;;;;51.75;42.25;;;;;4.03;55.34;99554.75;5048130;28;45967;-58
2022/12/14 11:39:13;;;;;;;;;54.00;42.75;;;;;3.90;55.38;99564.47;5048365;28;45431;-57
2022/12/14 11:41:46;;;;;;;;;54.75;45.25;;;;;3.78;56.31;99569.59;5038115;28;45946;-57
2022/12/14 11:44:15;;;;;;;;;39.25;37.50;;;;;3.67;56.57;99570.13;5011039;28;45470;-53
2022/12/14 11:46:56;;;;;;;;;53.25;42.00;;;;;3.61;56.13;99577.19;5028886;28;46603;-59
2022/12/14 11:49:38;;;;;;;;;43.25;38.50;;;;;3.56;55.91;99555.22;5027250;28;45439;-57
2022/12/14 11:52:03;;;;;;;;;50.00;45.25;;;;;3.29;55.63;99540.53;5035761;28;45532;-56